Time;durP1;ratioP1;P1;durP2;ratioP2;P2;SDS_P1;SDS_P2;PMS_P1;PMS_P2;Temp;Humidity;BMP_temperature;BMP_pressure;BME280_temperature;BME280_humidity;BME280_pressure;Samples;Min_cycle;Max_cycle;Signal;HPM_P1;HPM_P2
2024/03/17 00:01:03;;;;;;;10.20;2.70;;;9.80;70.70;;;5.28;100.00;96156.97;4951070;28;20022;-50
2024/03/17 00:03:31;;;;;;;5.38;2.03;;;9.90;70.90;;;5.34;100.00;96155.28;4949451;28;20449;-52
2024/03/17 00:06:00;;;;;;;8.45;2.53;;;9.90;70.90;;;5.41;100.00;96163.94;4951444;28;20061;-50
2024/03/17 00:08:26;;;;;;;7.07;2.17;;;10.00;71.00;;;5.46;100.00;96155.38;4950665;28;20053;-52
2024/03/17 00:10:56;;;;;;;4.32;1.90;;;10.10;71.00;;;5.50;100.00;96167.94;4950909;28;20070;-50
2024/03/17 00:13:23;;;;;;;6.03;2.05;;;10.20;71.10;;;5.56;100.00;96171.53;4950764;28;20495;-51
2024/03/17 00:15:50;;;;;;;7.00;2.38;;;10.20;71.00;;;5.56;100.00;96174.19;4951249;28;20038;-53
2024/03/17 00:18:17;;;;;;;5.65;1.90;;;10.30;70.90;;;5.63;100.00;96167.00;4951367;28;20025;-50
2024/03/17 00:20:43;;;;;;;4.78;2.00;;;10.30;70.90;;;5.67;100.00;96176.13;4942672;28;20030;-52
2024/03/17 00:23:11;;;;;;;8.35;3.03;;;10.30;70.80;;;5.73;100.00;96166.50;4964857;28;20077;-51
2024/03/17 00:25:39;;;;;;;8.48;3.53;;;10.40;70.90;;;5.82;100.00;96169.66;4949829;28;20030;-51
2024/03/17 00:28:05;;;;;;;6.22;2.08;;;10.40;71.00;;;5.82;100.00;96167.00;4951309;28;20029;-55
2024/03/17 00:30:31;;;;;;;4.38;2.05;;;10.40;70.80;;;5.84;100.00;96168.41;4950693;28;20035;-49
2024/03/17 00:32:58;;;;;;;5.35;1.83;;;10.50;70.90;;;5.86;100.00;96165.53;4953802;28;20511;-50
2024/03/17 00:35:26;;;;;;;4.35;1.83;;;10.50;70.90;;;5.91;100.00;96153.28;4955111;28;20122;-51
2024/03/17 00:37:53;;;;;;;3.70;1.50;;;10.60;70.90;;;5.96;100.00;96142.09;4954035;28;20022;-50
2024/03/17 00:40:20;;;;;;;3.47;1.90;;;10.60;70.90;;;5.99;100.00;96142.44;4954318;28;20054;-50
2024/03/17 00:42:47;;;;;;;3.60;1.60;;;10.60;70.90;;;6.01;100.00;96135.06;4954056;28;20023;-49
2024/03/17 00:45:13;;;;;;;5.38;1.90;;;10.70;70.80;;;6.00;100.00;96135.31;4954465;28;20037;-50
2024/03/17 00:47:40;;;;;;;3.83;1.98;;;10.70;70.80;;;6.01;100.00;96135.06;4953510;28;20393;-52
2024/03/17 00:50:08;;;;;;;6.60;2.15;;;10.70;70.70;;;6.02;100.00;96130.63;4953717;28;20040;-54
2024/03/17 00:52:35;;;;;;;6.10;1.85;;;10.70;71.50;;;6.05;100.00;96132.81;4954758;28;20030;-50
2024/03/17 00:55:02;;;;;;;3.30;1.65;;;10.70;70.60;;;6.00;100.00;96122.09;4955178;28;20478;-52
2024/03/17 00:57:28;;;;;;;6.80;2.03;;;10.70;70.60;;;6.06;100.00;96125.69;4951383;28;20031;-51
2024/03/17 00:59:54;;;;;;;8.32;2.10;;;10.70;70.70;;;6.08;100.00;96124.44;4958033;28;20027;-52
2024/03/17 01:02:21;;;;;;;2.92;1.67;;;10.70;70.70;;;6.07;100.00;96122.81;4954370;28;20039;-52
2024/03/17 01:04:47;;;;;;;5.28;1.70;;;10.70;70.70;;;6.02;100.00;96112.91;4954871;28;20030;-54
2024/03/17 01:07:13;;;;;;;6.85;2.15;;;10.80;70.70;;;6.08;100.00;96116.50;4953739;28;20081;-52
2024/03/17 01:09:39;;;;;;;3.90;2.00;;;10.80;70.70;;;6.10;100.00;96117.06;4953884;28;20038;-49
2024/03/17 01:12:05;;;;;;;4.05;2.15;;;10.80;70.70;;;6.06;100.00;96123.03;4954407;28;20430;-53
2024/03/17 01:14:33;;;;;;;5.10;2.40;;;10.80;70.60;;;6.10;100.00;96110.97;4953784;28;20038;-51
2024/03/17 01:17:04;;;;;;;3.40;1.92;;;10.80;70.60;;;6.13;100.00;96113.97;4956242;28;20026;-52
2024/03/17 01:19:32;;;;;;;4.03;2.10;;;10.80;70.70;;;6.06;100.00;96109.81;4953210;28;20503;-54
2024/03/17 01:22:01;;;;;;;6.28;2.10;;;10.80;70.60;;;6.12;100.00;96101.00;4954072;28;20042;-52
2024/03/17 01:24:31;;;;;;;5.47;2.03;;;10.80;70.60;;;6.09;100.00;96101.44;4954257;28;20026;-52
2024/03/17 01:26:59;;;;;;;6.95;2.15;;;10.80;70.50;;;6.09;100.00;96088.22;4953372;28;20033;-52
2024/03/17 01:29:25;;;;;;;4.72;1.98;;;10.80;70.50;;;6.08;100.00;96095.34;4953737;28;20508;-49
2024/03/17 01:31:51;;;;;;;4.90;2.00;;;10.80;70.40;;;6.02;100.00;96094.41;4953291;28;20029;-53
2024/03/17 01:34:19;;;;;;;6.07;2.15;;;10.80;70.40;;;6.00;100.00;96085.06;4954011;28;20026;-50
2024/03/17 01:36:45;;;;;;;5.45;2.03;;;10.80;70.40;;;5.97;100.00;96078.38;4952440;28;20045;-49
2024/03/17 01:39:11;;;;;;;5.53;1.95;;;10.70;70.40;;;5.97;100.00;96083.66;4951501;28;20039;-49
2024/03/17 01:41:37;;;;;;;6.10;2.03;;;10.70;70.40;;;5.95;100.00;96075.13;4988759;23;20516;-55
2024/03/17 01:44:03;;;;;;;5.78;1.90;;;10.70;70.40;;;5.90;100.00;96076.84;4951774;28;20057;-56
2024/03/17 01:46:29;;;;;;;8.13;2.15;;;10.60;70.40;;;5.87;100.00;96070.16;4954192;28;20046;-57
2024/03/17 01:48:56;;;;;;;4.30;2.13;;;10.60;70.50;;;5.86;100.00;96067.72;4954400;28;20137;-58
2024/03/17 01:51:23;;;;;;;6.25;2.22;;;10.60;70.60;;;5.87;100.00;96064.06;4968284;28;20076;-59
2024/03/17 01:53:49;;;;;;;3.65;2.15;;;10.50;70.60;;;5.84;100.00;96062.66;4967598;28;20030;-54
2024/03/17 01:56:17;;;;;;;4.53;2.20;;;10.50;70.70;;;5.83;100.00;96060.22;4953602;28;20042;-58
2024/03/17 01:58:45;;;;;;;4.40;2.35;;;10.50;70.80;;;5.83;100.00;96058.41;4954191;28;20027;-56
2024/03/17 02:01:15;;;;;;;3.85;2.00;;;10.50;70.80;;;5.78;100.00;96051.13;4953523;28;20551;-56
2024/03/17 02:03:42;;;;;;;4.53;1.85;;;10.50;70.80;;;5.76;100.00;96058.47;4954125;28;20041;-59
2024/03/17 02:06:12;;;;;;;3.05;2.08;;;10.50;70.70;;;5.77;100.00;96054.00;4965662;28;20481;-60
2024/03/17 02:08:48;;;;;;;4.82;2.30;;;10.50;70.80;;;5.72;100.00;96044.09;4952476;28;20437;-60
2024/03/17 02:11:33;;;;;;;4.35;2.10;;;10.50;71.00;;;5.75;100.00;96051.56;4954365;28;20328;-60
2024/03/17 02:14:03;;;;;;;2.75;1.73;;;10.50;71.00;;;5.77;100.00;96044.25;4948440;28;20027;-59
2024/03/17 02:16:29;;;;;;;3.78;2.03;;;10.40;70.90;;;5.70;100.00;96046.16;4952393;28;20061;-56
2024/03/17 02:18:57;;;;;;;4.53;2.05;;;10.40;70.80;;;5.74;100.00;96046.53;4953909;28;20022;-58
2024/03/17 02:21:25;;;;;;;5.18;2.35;;;10.40;70.80;;;5.69;100.00;96041.09;4952958;28;20030;-58
2024/03/17 02:23:52;;;;;;;6.38;2.20;;;10.50;70.90;;;5.71;100.00;96037.19;4954218;28;20026;-59
2024/03/17 02:26:18;;;;;;;2.67;1.85;;;10.40;70.80;;;5.74;100.00;96028.81;4965353;28;20037;-59
2024/03/17 02:28:47;;;;;;;4.63;2.10;;;10.40;70.70;;;5.63;100.00;96042.78;4953676;28;20029;-60
2024/03/17 02:31:16;;;;;;;3.47;1.98;;;10.40;70.70;;;5.63;100.00;96037.47;4953566;28;20547;-56
2024/03/17 02:33:44;;;;;;;4.55;2.10;;;10.40;70.70;;;5.65;100.00;96035.44;4953553;28;20519;-59
2024/03/17 02:36:12;;;;;;;3.25;2.00;;;10.40;70.70;;;5.63;100.00;96034.84;4953846;28;20033;-58
2024/03/17 02:41:26;;;;;;;6.13;2.20;;;10.40;70.70;;;5.63;100.00;96028.75;4953027;28;20104;-59
2024/03/17 02:43:51;;;;;;;5.10;2.90;;;10.40;70.70;;;5.63;100.00;96029.56;4951770;28;20030;-57
2024/03/17 02:46:19;;;;;;;3.67;2.13;;;10.30;70.70;;;5.62;100.00;96033.25;4952923;28;20022;-58
2024/03/17 02:48:53;;;;;;;3.47;2.00;;;10.30;70.70;;;5.57;100.00;96020.66;4953298;28;20086;-57
2024/03/17 02:51:22;;;;;;;5.10;1.85;;;10.30;70.80;;;5.52;100.00;96019.75;4952195;28;20109;-56
2024/03/17 02:53:49;;;;;;;3.20;1.83;;;10.20;70.60;;;5.51;100.00;96020.75;4953378;28;20015;-59
2024/03/17 02:56:17;;;;;;;2.90;2.25;;;10.20;70.60;;;5.45;100.00;96017.19;4951351;28;20397;-58
2024/03/17 02:58:47;;;;;;;6.88;2.30;;;10.10;70.50;;;5.42;100.00;96019.44;4965949;28;20105;-59
2024/03/17 03:01:14;;;;;;;7.38;2.65;;;10.10;70.50;;;5.28;100.00;96018.78;4953087;28;20049;-55
2024/03/17 03:03:41;;;;;;;4.65;2.10;;;10.00;70.50;;;5.27;100.00;96018.00;4952689;28;20019;-58
2024/03/17 03:06:09;;;;;;;5.70;2.30;;;10.00;70.50;;;5.21;100.00;96012.78;4952967;28;20054;-60
2024/03/17 03:08:41;;;;;;;3.72;2.60;;;9.90;70.30;;;5.07;100.00;96009.47;4952053;28;20073;-59
2024/03/17 03:11:11;;;;;;;;;;;9.80;70.30;;;4.99;100.00;96005.28;4953688;28;20444;-58
2024/03/17 03:13:43;;;;;;;6.50;2.30;;;9.70;70.10;;;4.94;100.00;95999.03;4966758;28;19968;-57
2024/03/17 03:16:14;;;;;;;6.25;2.38;;;9.70;70.20;;;4.85;100.00;95994.03;4952737;28;20110;-59
2024/03/17 03:18:43;;;;;;;4.72;2.30;;;9.60;70.20;;;4.81;100.00;95998.16;4952738;28;20113;-59
2024/03/17 03:21:09;;;;;;;3.40;2.08;;;9.50;70.20;;;4.76;100.00;95997.19;4951995;28;20512;-60
2024/03/17 03:23:35;;;;;;;6.85;2.47;;;9.50;70.30;;;4.70;100.00;96003.31;4952684;28;20026;-58
2024/03/17 03:26:03;;;;;;;4.18;2.40;;;9.40;70.30;;;4.61;100.00;96003.63;4951741;28;20038;-60
2024/03/17 03:28:36;;;;;;;6.20;2.45;;;9.40;70.40;;;4.56;100.00;95997.38;4967510;28;20024;-59
2024/03/17 03:31:02;;;;;;;4.00;2.13;;;9.30;70.50;;;4.43;100.00;95990.38;4952678;28;20034;-55
2024/03/17 03:33:28;;;;;;;5.03;2.65;;;9.20;70.40;;;4.43;100.00;95990.38;4950527;28;20026;-60
2024/03/17 03:35:55;;;;;;;4.07;2.85;;;9.20;70.50;;;4.38;100.00;95995.47;4952935;28;20121;-59
2024/03/17 03:38:22;;;;;;;3.75;2.15;;;9.10;70.40;;;4.31;100.00;96002.63;4951621;28;20421;-56
2024/03/17 03:40:49;;;;;;;9.43;2.50;;;9.10;70.50;;;4.27;100.00;96009.38;4934867;28;20038;-58
2024/03/17 03:43:15;;;;;;;3.80;2.53;;;9.00;70.40;;;4.19;100.00;96005.16;4951173;28;20061;-57
2024/03/17 03:45:42;;;;;;;5.68;2.42;;;8.90;70.40;;;4.04;100.00;96002.00;4967041;28;20022;-59
2024/03/17 03:48:09;;;;;;;5.75;3.22;;;8.90;70.40;;;4.01;100.00;95994.53;4952917;28;20023;-59
2024/03/17 03:50:35;;;;;;;5.07;2.25;;;8.80;70.40;;;3.96;100.00;95994.38;4950798;28;20117;-59
2024/03/17 03:53:01;;;;;;;4.65;2.40;;;8.80;70.50;;;3.92;100.00;95994.78;4950944;28;20030;-59
2024/03/17 03:55:27;;;;;;;7.50;2.65;;;8.70;70.40;;;3.84;100.00;95994.22;4950841;28;20057;-57
2024/03/17 03:57:52;;;;;;;9.90;3.00;;;8.60;70.40;;;3.77;100.00;96002.19;4951757;28;20031;-56
2024/03/17 04:00:22;;;;;;;7.43;2.78;;;8.60;70.50;;;3.75;100.00;96003.41;4949940;28;20401;-57
2024/03/17 04:02:52;;;;;;;7.22;2.95;;;8.50;70.50;;;3.68;100.00;95998.16;4948872;28;20489;-58
2024/03/17 04:05:20;;;;;;;8.73;3.13;;;8.50;70.60;;;3.66;100.00;95994.94;4948548;28;20389;-59
2024/03/17 04:07:48;;;;;;;5.88;3.10;;;8.40;70.60;;;3.62;100.00;95997.19;4944730;28;20018;-59
2024/03/17 04:10:15;;;;;;;4.60;2.83;;;8.40;70.70;;;3.53;100.00;96000.28;4950897;28;20058;-54
2024/03/17 04:12:42;;;;;;;4.60;2.90;;;8.30;70.70;;;3.48;100.00;95999.09;4951109;29;20049;-59
2024/03/17 04:15:12;;;;;;;4.88;3.05;;;8.20;70.60;;;3.46;100.00;95998.47;4951365;28;20023;-59
2024/03/17 04:17:38;;;;;;;11.75;3.05;;;8.20;70.60;;;3.37;100.00;95999.72;4950516;28;20047;-60
2024/03/17 04:20:08;;;;;;;7.22;3.40;;;8.20;70.70;;;3.34;100.00;95999.34;4951097;28;20046;-60
2024/03/17 04:22:34;;;;;;;5.25;2.92;;;8.20;70.70;;;3.34;100.00;96002.78;4952106;28;20019;-60
2024/03/17 04:25:01;;;;;;;7.03;3.10;;;8.10;70.70;;;3.35;100.00;96006.22;4950940;29;20393;-58
2024/03/17 04:27:28;;;;;;;5.85;3.03;;;8.10;70.90;;;3.34;100.00;95994.88;4951064;28;20026;-60
2024/03/17 04:29:57;;;;;;;7.07;2.92;;;8.10;71.00;;;3.30;100.00;95995.50;4951970;28;20057;-59
2024/03/17 04:32:24;;;;;;;4.95;3.00;;;8.00;70.90;;;3.21;100.00;95990.47;4949848;28;20314;-60
2024/03/17 04:34:51;;;;;;;9.32;3.40;;;7.90;70.90;;;3.21;100.00;95993.09;4952010;28;20416;-57
2024/03/17 04:37:17;;;;;;;8.23;3.05;;;8.00;71.00;;;3.20;100.00;95990.69;4951888;28;20348;-58
2024/03/17 04:39:46;;;;;;;24.80;4.07;;;7.90;70.90;;;3.16;100.00;95987.63;4950957;28;20109;-59
2024/03/17 04:42:19;;;;;;;5.00;3.47;;;7.90;71.00;;;3.12;100.00;95994.34;4951710;28;20104;-59
2024/03/17 04:44:46;;;;;;;21.75;4.75;;;7.90;71.00;;;3.09;100.00;95983.44;4965290;28;20041;-56
2024/03/17 04:47:13;;;;;;;16.17;4.35;;;7.80;71.00;;;3.10;100.00;95983.19;4952024;28;20019;-56
2024/03/17 04:49:44;;;;;;;17.42;4.15;;;7.80;71.20;;;3.10;100.00;95995.56;4950945;28;20421;-55
2024/03/17 04:52:12;;;;;;;9.05;3.50;;;7.80;71.30;;;3.10;100.00;95990.28;4951638;28;20551;-59
2024/03/17 04:54:41;;;;;;;12.07;4.07;;;7.80;71.30;;;3.10;100.00;96000.81;4951811;28;20595;-58
2024/03/17 04:57:07;;;;;;;7.03;3.42;;;7.80;71.30;;;3.08;100.00;95993.16;4950701;28;20034;-58
2024/03/17 04:59:35;;;;;;;8.52;3.50;;;7.80;71.40;;;3.03;100.00;95998.22;4951683;28;20030;-57
2024/03/17 05:02:02;;;;;;;5.25;3.05;;;7.80;71.40;;;2.99;100.00;96003.09;4965523;28;20548;-57
2024/03/17 05:04:29;;;;;;;5.70;3.10;;;7.80;71.30;;;2.99;100.00;95994.38;4961610;28;20494;-58
2024/03/17 05:06:55;;;;;;;10.52;3.38;;;7.70;71.30;;;3.00;100.00;96002.06;4951500;28;20026;-58
2024/03/17 05:09:20;;;;;;;11.15;3.40;;;7.70;71.30;;;2.98;100.00;96003.31;4950879;28;20027;-58
2024/03/17 05:11:47;;;;;;;8.88;3.90;;;7.70;71.30;;;2.97;100.00;96002.47;4951402;28;20378;-59
2024/03/17 05:14:13;;;;;;;8.88;3.47;;;7.70;71.30;;;2.94;100.00;95995.00;4950837;28;20386;-58
2024/03/17 05:16:39;;;;;;;13.68;3.53;;;7.70;71.30;;;2.92;100.00;95996.25;4951750;28;20462;-59
2024/03/17 05:19:06;;;;;;;6.40;2.70;;;7.60;71.30;;;2.89;100.00;96001.91;4953130;28;20027;-59
2024/03/17 05:21:32;;;;;;;5.90;3.30;;;7.60;71.30;;;2.86;100.00;95999.69;4954057;28;20434;-56
2024/03/17 05:24:01;;;;;;;23.98;4.45;;;7.60;71.30;;;2.86;100.00;95997.06;4954135;28;20457;-57
2024/03/17 05:26:28;;;;;;;35.47;5.30;;;7.60;71.50;;;2.90;100.00;95995.63;4953888;28;20029;-58
2024/03/17 05:28:54;;;;;;;10.57;4.20;;;7.60;71.50;;;2.92;100.00;95990.97;4953690;28;20125;-58
2024/03/17 05:31:22;;;;;;;10.95;4.80;;;7.60;71.60;;;2.93;100.00;95992.59;4969294;28;20027;-57
2024/03/17 05:33:48;;;;;;;8.32;4.10;;;7.60;71.70;;;2.92;100.00;95989.16;4953942;28;20512;-59
2024/03/17 05:36:15;;;;;;;12.77;4.18;;;7.60;71.70;;;2.94;100.00;95994.19;4953521;28;20026;-57
2024/03/17 05:38:40;;;;;;;26.55;4.63;;;7.70;71.80;;;2.95;100.00;95991.38;4968207;28;20029;-57
2024/03/17 05:41:09;;;;;;;10.98;4.13;;;7.70;71.80;;;2.97;100.00;95997.22;4954534;28;20374;-58
2024/03/17 05:43:37;;;;;;;9.32;3.60;;;7.70;71.80;;;2.97;100.00;95997.22;4953633;28;20441;-57
2024/03/17 05:46:10;;;;;;;7.78;4.07;;;7.70;71.80;;;2.97;100.00;96004.31;4954771;28;20023;-59
2024/03/17 05:48:39;;;;;;;10.48;3.60;;;7.70;71.70;;;2.97;100.00;96010.38;4953366;28;20027;-58
2024/03/17 05:51:11;;;;;;;16.80;3.90;;;7.80;71.70;;;2.95;100.00;96008.97;4953659;28;20542;-56
2024/03/17 05:53:45;;;;;;;11.77;3.60;;;7.80;71.60;;;2.96;100.00;96006.13;4954669;28;20034;-57
2024/03/17 05:56:12;;;;;;;11.10;3.92;;;7.80;71.50;;;2.95;100.00;96001.91;4953864;28;20425;-58
2024/03/17 05:58:39;;;;;;;12.38;3.47;;;7.80;71.50;;;3.00;100.00;96007.31;4954461;28;20015;-59
2024/03/17 06:01:07;;;;;;;7.30;4.03;;;7.80;71.50;;;3.06;100.00;96007.53;4954484;28;20034;-56
2024/03/17 06:03:37;;;;;;;12.95;4.00;;;7.90;71.70;;;3.13;100.00;96009.13;4952797;28;20027;-59
2024/03/17 06:06:12;;;;;;;11.00;4.03;;;8.00;71.80;;;3.20;100.00;96006.50;4954246;28;20029;-58
2024/03/17 06:08:38;;;;;;;9.55;4.22;;;8.00;71.80;;;3.28;100.00;96016.78;4953386;28;20030;-59
2024/03/17 06:11:05;;;;;;;9.70;3.70;;;8.10;71.80;;;3.37;100.00;96014.72;4954361;28;20019;-54
2024/03/17 06:13:31;;;;;;;6.72;3.83;;;8.20;72.70;;;3.42;100.00;96010.44;4953238;28;20223;-56
2024/03/17 06:16:00;;;;;;;13.88;4.30;;;8.30;71.90;;;3.50;100.00;96017.28;4953117;28;20117;-56
2024/03/17 06:18:27;;;;;;;12.30;4.18;;;8.40;71.90;;;3.59;100.00;96021.31;4953967;28;20034;-57
2024/03/17 06:20:55;;;;;;;7.43;3.53;;;8.50;71.80;;;3.69;100.00;96026.13;4952946;28;20039;-58
2024/03/17 06:23:21;;;;;;;7.93;3.85;;;8.60;71.80;;;3.77;100.00;96020.63;4968905;28;20046;-57
2024/03/17 06:25:50;;;;;;;8.20;3.40;;;8.70;71.70;;;3.87;100.00;96028.06;4953409;28;20069;-58
2024/03/17 06:28:17;;;;;;;14.70;3.83;;;8.80;71.70;;;3.94;100.00;96021.72;4954056;28;20025;-59
2024/03/17 06:30:48;;;;;;;9.82;3.83;;;9.00;71.60;;;4.05;100.00;96022.09;4953946;28;20084;-58
2024/03/17 06:33:20;;;;;;;41.35;17.20;;;9.10;71.70;;;4.16;100.00;96026.66;4953311;28;20573;-59
2024/03/17 06:35:47;;;;;;;18.58;9.63;;;9.20;71.60;;;4.30;100.00;96024.78;4954500;28;20081;-59
2024/03/17 06:38:15;;;;;;;10.10;4.32;;;9.40;71.60;;;4.43;100.00;96023.88;4953148;28;20023;-59
2024/03/17 06:40:41;;;;;;;9.52;4.78;;;9.50;71.60;;;4.57;100.00;96025.34;4953745;28;20035;-58
2024/03/17 06:43:07;;;;;;;8.55;4.13;;;9.60;71.60;;;4.71;100.00;96024.22;4954184;28;20018;-59
2024/03/17 06:45:34;;;;;;;10.52;4.13;;;9.80;71.60;;;4.86;100.00;96019.44;4952923;28;20030;-58
2024/03/17 06:48:00;;;;;;;12.95;4.40;;;9.90;71.70;;;5.01;100.00;96015.63;4953180;28;20477;-57
2024/03/17 06:50:26;;;;;;;13.38;5.10;;;10.10;71.70;;;5.17;100.00;96014.22;4953228;28;20026;-59
2024/03/17 06:52:52;;;;;;;9.82;4.80;;;10.30;71.80;;;5.32;100.00;96020.75;4956592;28;20029;-57
2024/03/17 06:55:21;;;;;;;7.97;3.75;;;10.40;71.70;;;5.47;100.00;96019.59;4953998;28;20477;-58
2024/03/17 06:57:47;;;;;;;8.45;4.03;;;10.60;71.70;;;5.60;100.00;96015.97;4953053;28;20050;-52
2024/03/17 07:00:16;;;;;;;8.48;3.90;;;10.80;71.60;;;5.70;100.00;96014.44;4953524;28;20034;-57
2024/03/17 07:02:43;;;;;;;5.78;3.60;;;10.90;71.50;;;5.83;100.00;96012.63;4952487;28;20030;-58
2024/03/17 07:05:15;;;;;;;9.52;3.80;;;11.00;71.40;;;5.96;100.00;96017.78;4951768;28;20022;-57
2024/03/17 07:07:45;;;;;;;7.43;3.75;;;11.20;71.40;;;6.09;100.00;96020.25;4952259;28;20023;-58
2024/03/17 07:10:12;;;;;;;7.95;3.65;;;11.30;71.20;;;6.21;100.00;96015.78;4952935;28;20557;-57
2024/03/17 07:12:42;;;;;;;13.80;3.95;;;11.40;71.20;;;6.34;100.00;96021.94;4953333;28;20030;-58
2024/03/17 07:15:09;;;;;;;9.05;4.05;;;11.60;71.10;;;6.46;100.00;96017.47;4952044;28;20062;-59
2024/03/17 07:17:35;;;;;;;9.52;3.80;;;11.70;71.00;;;6.57;100.00;96010.56;4967713;28;20061;-59
2024/03/17 07:20:03;;;;;;;9.93;3.95;;;11.80;70.90;;;6.66;100.00;96010.00;4951827;28;20026;-56
2024/03/17 07:22:29;;;;;;;8.20;3.67;;;12.00;70.90;;;6.78;100.00;96007.38;4967401;28;20384;-56
2024/03/17 07:25:00;;;;;;;5.50;3.30;;;12.10;70.80;;;6.89;100.00;96011.03;4952301;28;20421;-58
2024/03/17 07:27:29;;;;;;;6.13;3.40;;;12.30;70.80;;;7.00;100.00;96007.59;4950378;28;20479;-59
2024/03/17 07:29:55;;;;;;;7.20;3.30;;;12.40;70.60;;;7.14;100.00;96016.91;4948638;28;20487;-59
2024/03/17 07:32:23;;;;;;;6.75;3.05;;;12.50;70.50;;;7.27;100.00;96012.38;4949797;28;20113;-58
2024/03/17 07:34:50;;;;;;;5.57;2.78;;;12.60;70.50;;;7.38;100.00;96008.94;4952286;28;20481;-58
2024/03/17 07:37:16;;;;;;;6.00;2.08;;;12.80;70.40;;;7.45;100.00;96020.19;4952821;28;20026;-59
2024/03/17 07:39:42;;;;;;;7.97;2.95;;;13.00;70.30;;;7.53;100.00;96016.41;4951313;28;20054;-54
2024/03/17 07:42:07;;;;;;;6.88;2.60;;;13.20;70.10;;;7.59;100.00;96028.72;4952467;28;20069;-56
2024/03/17 07:44:34;;;;;;;7.82;2.60;;;13.30;69.80;;;7.78;100.00;96026.69;4951259;28;20027;-57
2024/03/17 07:47:04;;;;;;;7.38;2.60;;;13.50;69.60;;;7.97;100.00;96036.09;4952456;28;20050;-56
2024/03/17 07:49:31;;;;;;;7.03;2.33;;;13.80;69.60;;;8.13;100.00;96031.88;4951269;28;20029;-58
2024/03/17 07:51:57;;;;;;;7.25;2.78;;;14.10;69.40;;;8.25;100.00;96031.81;4952295;28;20026;-56
2024/03/17 07:54:26;;;;;;;4.65;2.25;;;14.40;69.90;;;8.46;100.00;96019.72;4952258;28;20038;-58
2024/03/17 07:56:53;;;;;;;4.85;2.30;;;14.60;68.70;;;8.50;100.00;96019.00;4950267;28;20470;-58
2024/03/17 07:59:19;;;;;;;3.83;2.17;;;14.80;68.40;;;8.64;100.00;96021.34;4952144;28;20038;-58
2024/03/17 08:01:45;;;;;;;6.00;2.10;;;14.90;68.30;;;8.72;100.00;96018.28;4951341;28;20023;-57
2024/03/17 08:04:12;;;;;;;2.65;1.63;;;15.00;68.00;;;8.85;100.00;96028.59;4952260;28;20085;-55
2024/03/17 08:06:41;;;;;;;2.08;1.45;;;15.10;67.40;;;9.05;100.00;96028.06;4951811;28;20023;-57
2024/03/17 08:09:12;;;;;;;4.60;1.98;;;15.40;66.90;;;9.21;100.00;96021.94;4946861;28;20072;-58
2024/03/17 08:11:38;;;;;;;5.20;1.70;;;15.50;66.20;;;9.31;100.00;96018.63;4952173;28;20023;-56
2024/03/17 08:14:05;;;;;;;2.58;1.58;;;15.60;65.80;;;9.41;100.00;96018.75;4952670;28;20512;-56
2024/03/17 08:16:31;;;;;;;2.28;1.48;;;15.70;65.20;;;9.58;100.00;96013.38;4952097;28;20081;-57
2024/03/17 08:18:57;;;;;;;2.78;1.65;;;15.90;64.70;;;9.85;100.00;96016.09;4952476;28;20031;-57
2024/03/17 08:21:24;;;;;;;3.90;1.50;;;16.10;64.20;;;10.14;100.00;96010.53;4954153;28;20478;-58
2024/03/17 08:23:50;;;;;;;1.90;1.55;;;16.50;63.60;;;10.46;100.00;96001.81;4952176;28;20057;-55
2024/03/17 08:26:16;;;;;;;3.03;1.50;;;16.90;63.10;;;10.77;100.00;96006.31;4948414;28;20104;-57
2024/03/17 08:28:42;;;;;;;2.05;1.33;;;17.20;62.30;;;11.04;99.48;96000.13;4951644;28;20022;-58
2024/03/17 08:31:07;;;;;;;2.08;1.20;;;17.60;61.80;;;11.13;91.04;96009.25;4951878;28;20023;-58
2024/03/17 08:33:34;;;;;;;3.20;1.40;;;17.90;60.90;;;11.39;91.93;96012.84;4950880;28;20027;-57
2024/03/17 08:36:09;;;;;;;2.38;1.48;;;18.20;60.00;;;11.66;89.91;96004.72;4950521;28;20037;-56
2024/03/17 08:38:37;;;;;;;1.73;1.27;;;18.50;59.00;;;11.90;85.83;96002.41;4950833;28;20070;-55
2024/03/17 08:41:10;;;;;;;2.22;1.67;;;18.70;58.70;;;12.15;85.00;96003.56;4950480;28;20100;-56
2024/03/17 08:43:38;;;;;;;3.13;1.70;;;18.90;58.10;;;12.30;82.75;96002.78;4950484;28;20022;-56
2024/03/17 08:46:08;;;;;;;3.58;1.80;;;19.10;57.50;;;12.49;81.17;96004.69;4951942;28;20031;-56
2024/03/17 08:48:38;;;;;;;2.22;1.50;;;19.40;56.90;;;12.67;80.14;96005.25;4950543;29;20042;-58
2024/03/17 08:51:07;;;;;;;2.03;1.40;;;19.50;56.40;;;12.72;75.24;96003.38;4950985;28;20433;-57
2024/03/17 08:53:33;;;;;;;3.05;1.30;;;19.60;55.40;;;12.88;76.34;96014.88;4952854;28;20049;-59
2024/03/17 08:56:02;;;;;;;2.15;1.40;;;19.60;55.00;;;12.91;76.27;96013.50;4954441;28;20141;-55
2024/03/17 08:58:28;;;;;;;3.53;1.85;;;19.60;54.90;;;13.00;79.45;96005.75;4969792;28;20027;-57
2024/03/17 09:00:56;;;;;;;4.22;1.67;;;19.70;55.00;;;13.08;76.56;96008.69;4954665;28;20030;-58
2024/03/17 09:03:22;;;;;;;3.88;1.65;;;19.80;54.60;;;13.19;76.77;96010.28;4953259;28;20046;-56
2024/03/17 09:05:49;;;;;;;3.17;1.60;;;19.90;54.40;;;13.25;76.09;96015.63;4955322;28;20031;-58
2024/03/17 09:08:22;;;;;;;5.30;1.90;;;19.90;54.10;;;13.28;77.21;96015.88;4954446;28;20109;-56
2024/03/17 09:10:52;;;;;;;3.05;1.90;;;20.10;54.30;;;13.54;80.84;96019.31;4974233;28;20023;-58
2024/03/17 09:13:25;;;;;;;2.88;2.00;;;20.20;53.90;;;13.71;76.39;96013.63;4955094;28;20022;-57
2024/03/17 09:16:00;;;;;;;3.85;1.83;;;20.40;53.10;;;13.86;76.47;96018.13;4954539;28;20037;-59
2024/03/17 09:18:31;;;;;;;2.78;1.70;;;20.50;52.70;;;13.92;73.59;96017.03;4954989;28;20077;-58
2024/03/17 09:21:07;;;;;;;4.22;2.13;;;20.70;52.60;;;13.99;75.93;96017.53;4961712;28;20552;-56
2024/03/17 09:23:35;;;;;;;2.63;2.10;;;20.80;52.70;;;14.09;76.24;96005.97;4955038;28;20477;-58
2024/03/17 09:26:17;;;;;;;3.22;2.03;;;21.00;52.40;;;14.40;73.47;96008.47;4952719;28;20448;-58
2024/03/17 09:28:43;;;;;;;5.10;2.13;;;21.20;52.00;;;14.44;73.19;96006.81;4954678;28;20101;-58
2024/03/17 09:31:11;;;;;;;3.28;2.13;;;21.40;52.10;;;14.42;68.61;96000.97;4954787;28;20035;-59
2024/03/17 09:33:38;;;;;;;3.45;1.85;;;21.50;51.10;;;14.35;66.87;95998.56;4953843;28;20025;-59
2024/03/17 09:36:07;;;;;;;6.45;1.77;;;21.50;50.40;;;14.52;65.80;95991.00;4954733;28;20038;-58
2024/03/17 09:38:35;;;;;;;4.25;1.63;;;21.60;49.70;;;14.50;65.49;95995.78;4954023;28;20377;-59
2024/03/17 09:41:02;;;;;;;2.95;1.80;;;21.60;49.40;;;14.61;65.83;95988.53;4954427;28;20047;-56
2024/03/17 09:43:35;;;;;;;3.83;1.80;;;21.60;49.40;;;14.69;64.87;95989.78;4954264;28;20477;-58
2024/03/17 09:46:05;;;;;;;1.90;1.58;;;21.70;48.90;;;14.72;65.53;95992.69;4954627;28;20117;-57
2024/03/17 09:48:32;;;;;;;3.42;2.00;;;21.70;48.90;;;14.74;64.45;95995.13;4954943;28;20600;-56
2024/03/17 09:51:02;;;;;;;6.45;2.35;;;21.80;48.70;;;14.83;68.44;95992.63;4968049;28;20031;-56
2024/03/17 09:53:34;;;;;;;4.82;1.90;;;21.90;48.80;;;14.79;64.75;95989.69;4954228;28;20389;-54
2024/03/17 09:56:19;;;;;;;5.18;1.95;;;22.00;48.40;;;14.98;64.75;95993.31;4953597;28;20027;-56
2024/03/17 09:58:52;;;;;;;2.17;1.60;;;22.10;48.10;;;15.16;67.58;95985.63;4966374;28;20117;-54
2024/03/17 10:01:19;;;;;;;4.00;2.10;;;22.10;48.10;;;15.30;66.57;95980.41;4953994;28;20061;-57
2024/03/17 10:03:52;;;;;;;4.20;1.80;;;22.20;48.40;;;14.91;65.05;95984.75;4952802;28;20050;-57
2024/03/17 10:06:24;;;;;;;3.38;1.80;;;22.20;47.70;;;14.84;64.78;95984.31;4953174;28;20022;-56
2024/03/17 10:08:57;;;;;;;3.67;1.63;;;22.10;47.30;;;14.91;64.00;95989.34;4953280;28;20436;-59
2024/03/17 10:11:41;;;;;;;2.70;1.77;;;21.90;47.20;;;14.80;68.18;95973.34;4954204;28;20027;-58
2024/03/17 10:14:09;;;;;;;2.05;1.65;;;21.80;47.60;;;14.73;67.64;95975.56;4953367;28;20270;-59
2024/03/17 10:16:38;;;;;;;3.30;1.83;;;21.70;47.90;;;14.71;69.13;95983.06;4952918;28;20058;-58
2024/03/17 10:19:10;;;;;;;3.00;1.88;;;21.60;48.00;;;14.69;70.16;95987.09;4954048;28;20053;-58
2024/03/17 10:21:49;;;;;;;2.58;1.70;;;21.50;48.00;;;14.71;68.13;95991.13;4952056;28;20493;-58
2024/03/17 10:24:29;;;;;;;4.15;2.13;;;21.40;48.60;;;14.55;67.67;95990.44;4953833;28;20043;-56
2024/03/17 10:27:02;;;;;;;3.38;2.30;;;21.30;47.70;;;14.67;67.24;95984.72;4951787;28;20508;-58